Time,TemperatureF,DewpointF,PressureIn,WindDirection,WindDirectionDegrees,WindSpeedMPH,WindSpeedGustMPH,Humidity,HourlyPrecipIn,Conditions,Clouds,dailyrainin,SoftwareType,DateUTC
2014-03-01 00:01:00,22.3,16.9,29.80,North,359,0.0,0.0,80,0.00,,---,0.00,VWS V14.01,2014-03-01 05:01:00,
2014-03-01 00:02:00,22.2,16.8,29.80,North,359,0.0,0.0,79,0.00,,---,0.00,VWS V14.01,2014-03-01 05:02:00,
2014-03-01 00:03:00,22.3,16.9,29.80,North,359,0.0,0.0,79,0.00,,---,0.00,VWS V14.01,2014-03-01 05:03:00,
2014-03-01 00:08:00,22.3,16.8,29.79,North,359,0.0,0.0,79,0.00,,---,0.00,VWS V14.01,2014-03-01 05:08:00,
2014-03-01 00:13:00,22.2,16.7,29.79,North,359,0.0,0.0,79,0.00,,---,0.00,VWS V14.01,2014-03-01 05:13:00,
2014-03-01 00:19:00,22.2,16.8,29.79,North,359,0.0,0.0,79,0.00,,---,0.00,VWS V14.01,2014-03-01 05:19:00,
2014-03-01 00:24:00,22.1,16.7,29.80,North,359,0.0,0.0,79,0.00,,---,0.00,VWS V14.01,2014-03-01 05:24:00,
2014-03-01 00:29:00,22.2,16.9,29.79,North,359,0.0,0.0,80,0.00,,---,0.00,VWS V14.01,2014-03-01 05:29:00,
2014-03-01 00:34:00,22.2,16.9,29.79,North,359,0.0,0.0,80,0.00,,---,0.00,VWS V14.01,2014-03-01 05:34:00,
2014-03-01 00:39:00,22.2,16.8,29.79,North,359,0.0,0.0,80,0.00,,---,0.00,VWS V14.01,2014-03-01 05:39:00,
2014-03-01 00:44:00,22.2,16.9,29.79,North,359,0.0,0.0,80,0.00,,---,0.00,VWS V14.01,2014-03-01 05:44:00,
2014-03-01 00:49:00,22.1,16.9,29.80,North,359,0.0,0.0,80,0.00,,---,0.00,VWS V14.01,2014-03-01 05:49:00,
2014-03-01 00:54:00,22.0,16.9,29.80,North,359,0.0,0.0,80,0.00,,---,0.00,VWS V14.01,2014-03-01 05:54:00,
2014-03-01 00:59:00,21.9,16.8,29.81,North,359,0.0,0.0,80,0.00,,---,0.00,VWS V14.01,2014-03-01 05:59:00,
2014-03-01 01:04:00,21.8,16.7,29.80,North,359,0.0,0.0,80,0.00,,---,0.00,VWS V14.01,2014-03-01 06:04:00,
2014-03-01 01:09:00,21.7,16.6,29.80,North,359,0.0,0.0,80,0.00,,---,0.00,VWS V14.01,2014-03-01 06:09:00,
2014-03-01 01:14:00,21.8,16.8,29.80,North,359,0.0,0.0,81,0.00,,---,0.00,VWS V14.01,2014-03-01 06:14:00,
2014-03-01 01:19:00,21.8,16.9,29.80,North,359,0.0,0.0,81,0.00,,---,0.00,VWS V14.01,2014-03-01 06:19:00,
2014-03-01 01:24:00,21.9,17.0,29.81,North,359,0.0,0.0,81,0.00,,---,0.00,VWS V14.01,2014-03-01 06:24:00,
2014-03-01 01:29:00,22.1,17.0,29.81,North,359,0.0,0.0,80,0.00,,---,0.00,VWS V14.01,2014-03-01 06:29:00,
2014-03-01 01:34:00,22.3,17.1,29.81,North,359,0.0,0.0,80,0.00,,---,0.00,VWS V14.01,2014-03-01 06:34:00,
2014-03-01 01:35:00,22.3,17.1,29.81,North,359,0.0,0.0,80,0.00,,---,0.00,VWS V14.01,2014-03-01 06:35:00,
2014-03-01 01:40:00,22.5,17.2,29.80,WNW,284,0.0,0.0,80,0.00,,---,0.00,VWS V14.01,2014-03-01 06:40:00,
2014-03-01 01:45:00,22.7,17.3,29.80,North,359,0.0,0.0,79,0.00,,---,0.00,VWS V14.01,2014-03-01 06:45:00,
2014-03-01 01:50:00,22.8,17.4,29.80,North,359,0.2,0.2,79,0.00,,---,0.00,VWS V14.01,2014-03-01 06:50:00,
2014-03-01 01:55:00,23.0,17.4,29.79,North,359,0.0,0.0,79,0.00,,---,0.00,VWS V14.01,2014-03-01 06:55:00,
2014-03-01 02:00:00,23.2,17.7,29.79,North,359,0.0,0.0,79,0.00,,---,0.00,VWS V14.01,2014-03-01 07:00:00,
2014-03-01 02:05:00,23.3,17.9,29.79,North,359,0.0,0.0,79,0.00,,---,0.00,VWS V14.01,2014-03-01 07:05:00,
2014-03-01 02:11:00,23.2,17.8,29.79,North,359,0.0,0.0,80,0.00,,---,0.00,VWS V14.01,2014-03-01 07:11:00,
2014-03-01 02:16:00,23.1,17.6,29.79,West,271,0.0,0.0,79,0.00,,---,0.00,VWS V14.01,2014-03-01 07:16:00,
2014-03-01 02:21:00,23.1,17.6,29.79,West,271,0.0,0.0,79,0.00,,---,0.00,VWS V14.01,2014-03-01 07:21:00,
2014-03-01 02:26:00,23.2,17.6,29.79,North,359,0.0,0.0,79,0.00,,---,0.00,VWS V14.01,2014-03-01 07:26:00,
2014-03-01 02:31:00,23.3,17.6,29.79,West,281,2.3,2.7,79,0.00,,---,0.00,VWS V14.01,2014-03-01 07:31:00,
2014-03-01 02:36:00,23.7,17.9,29.79,West,266,0.0,0.0,78,0.00,,---,0.00,VWS V14.01,2014-03-01 07:36:00,
2014-03-01 02:42:00,24.1,18.2,29.79,West,273,1.1,2.5,78,0.00,,---,0.00,VWS V14.01,2014-03-01 07:42:00,
2014-03-01 02:47:00,24.3,18.1,29.79,WNW,284,1.2,1.2,77,0.00,,---,0.00,VWS V14.01,2014-03-01 07:47:00,
2014-03-01 02:52:00,24.6,18.3,29.79,West,274,0.0,0.0,77,0.00,,---,0.00,VWS V14.01,2014-03-01 07:52:00,
2014-03-01 02:57:00,24.6,18.5,29.79,WSW,249,0.0,0.0,77,0.00,,---,0.00,VWS V14.01,2014-03-01 07:57:00,
2014-03-01 02:58:00,24.6,18.5,29.79,WSW,249,0.0,0.0,77,0.00,,---,0.00,VWS V14.01,2014-03-01 07:58:00,
2014-03-01 03:03:00,24.5,18.3,29.79,WSW,249,0.0,0.0,77,0.00,,---,0.00,VWS V14.01,2014-03-01 08:03:00,
2014-03-01 03:08:00,24.4,18.2,29.79,WSW,249,0.0,0.0,77,0.00,,---,0.00,VWS V14.01,2014-03-01 08:08:00,
2014-03-01 03:13:00,24.3,18.5,29.79,WSW,249,0.0,0.0,78,0.00,,---,0.00,VWS V14.01,2014-03-01 08:13:00,
2014-03-01 03:18:00,24.1,18.3,29.78,WSW,249,0.0,0.0,78,0.00,,---,0.00,VWS V14.01,2014-03-01 08:18:00,
2014-03-01 03:23:00,24.1,18.4,29.78,WSW,249,0.0,0.0,78,0.00,,---,0.00,VWS V14.01,2014-03-01 08:23:00,
2014-03-01 03:28:00,24.1,18.3,29.78,WSW,249,0.0,0.0,78,0.00,,---,0.00,VWS V14.01,2014-03-01 08:28:00,
2014-03-01 03:33:00,24.1,18.2,29.78,WSW,249,0.0,0.0,78,0.00,,---,0.00,VWS V14.01,2014-03-01 08:33:00,
2014-03-01 03:38:00,24.1,18.2,29.78,WNW,295,0.0,0.0,78,0.00,,---,0.00,VWS V14.01,2014-03-01 08:38:00,
2014-03-01 03:43:00,24.3,18.4,29.78,WNW,283,0.0,0.0,78,0.00,,---,0.00,VWS V14.01,2014-03-01 08:43:00,
2014-03-01 03:48:00,24.4,18.5,29.78,WNW,301,3.0,4.1,78,0.00,,---,0.00,VWS V14.01,2014-03-01 08:48:00,
2014-03-01 03:53:00,24.4,18.4,29.79,WNW,284,4.9,6.8,78,0.00,,---,0.00,VWS V14.01,2014-03-01 08:53:00,
2014-03-01 03:58:00,24.4,18.4,29.78,WNW,300,3.2,3.2,78,0.00,,---,0.00,VWS V14.01,2014-03-01 08:58:00,
2014-03-01 04:04:00,24.2,18.4,29.78,WNW,300,0.0,0.0,78,0.00,,---,0.00,VWS V14.01,2014-03-01 09:04:00,
2014-03-01 04:09:00,24.3,18.5,29.79,NW,312,6.2,6.2,78,0.00,,---,0.00,VWS V14.01,2014-03-01 09:09:00,
2014-03-01 04:14:00,24.3,18.6,29.79,NNW,347,2.9,2.9,78,0.00,,---,0.00,VWS V14.01,2014-03-01 09:14:00,
2014-03-01 04:19:00,24.3,18.8,29.78,WNW,287,0.0,0.7,79,0.00,,---,0.00,VWS V14.01,2014-03-01 09:19:00,
2014-03-01 04:24:00,24.4,19.2,29.79,WNW,287,0.0,0.0,80,0.00,,---,0.00,VWS V14.01,2014-03-01 09:24:00,
2014-03-01 04:29:00,24.4,19.0,29.79,WNW,294,0.0,0.0,80,0.00,,---,0.00,VWS V14.01,2014-03-01 09:29:00,
2014-03-01 04:34:00,24.7,19.9,29.79,NW,307,3.7,4.7,82,0.00,,---,0.00,VWS V14.01,2014-03-01 09:34:00,
2014-03-01 04:39:00,25.4,20.5,29.79,NNW,332,3.8,4.3,81,0.00,,---,0.00,VWS V14.01,2014-03-01 09:39:00,
2014-03-01 04:44:00,26.0,21.1,29.79,NW,326,5.7,6.3,81,0.00,,---,0.00,VWS V14.01,2014-03-01 09:44:00,
2014-03-01 04:49:00,26.3,21.0,29.79,WNW,291,3.2,3.6,80,0.00,,---,0.00,VWS V14.01,2014-03-01 09:49:00,
2014-03-01 04:54:00,26.6,21.2,29.79,West,280,2.3,2.4,80,0.00,,---,0.00,VWS V14.01,2014-03-01 09:54:00,
2014-03-01 04:59:00,26.6,21.1,29.79,WNW,290,2.4,2.4,80,0.00,,---,0.00,VWS V14.01,2014-03-01 09:59:00,
2014-03-01 05:04:00,26.6,21.2,29.79,WNW,297,0.0,0.0,80,0.00,,---,0.00,VWS V14.01,2014-03-01 10:04:00,
2014-03-01 05:09:00,26.7,21.4,29.79,WNW,285,3.2,3.3,80,0.00,,---,0.00,VWS V14.01,2014-03-01 10:09:00,
2014-03-01 05:14:00,26.6,21.2,29.79,WNW,295,0.0,0.0,80,0.00,,---,0.00,VWS V14.01,2014-03-01 10:14:00,
2014-03-01 05:19:00,26.5,21.1,29.79,NW,309,0.0,0.0,80,0.00,,---,0.00,VWS V14.01,2014-03-01 10:19:00,
2014-03-01 05:24:00,26.5,21.4,29.79,NW,309,0.0,0.0,81,0.00,,---,0.00,VWS V14.01,2014-03-01 10:24:00,
2014-03-01 05:29:00,26.5,21.5,29.79,NW,309,0.0,0.0,81,0.00,,---,0.00,VWS V14.01,2014-03-01 10:29:00,
2014-03-01 05:35:00,26.5,21.8,29.79,WNW,288,0.0,0.0,82,0.00,,---,0.00,VWS V14.01,2014-03-01 10:35:00,
2014-03-01 05:40:00,26.6,22.1,29.80,NW,311,0.0,0.0,83,0.00,,---,0.00,VWS V14.01,2014-03-01 10:40:00,
2014-03-01 05:45:00,26.9,22.1,29.80,NNW,328,0.0,0.0,82,0.00,,---,0.00,VWS V14.01,2014-03-01 10:45:00,
2014-03-01 05:50:00,27.3,22.2,29.80,WNW,288,0.0,0.0,81,0.00,,---,0.00,VWS V14.01,2014-03-01 10:50:00,
2014-03-01 05:55:00,27.7,22.4,29.80,NW,326,0.0,0.0,80,0.00,,---,0.00,VWS V14.01,2014-03-01 10:55:00,
2014-03-01 06:00:00,27.8,22.1,29.81,NNW,328,0.0,0.0,79,0.00,,---,0.00,VWS V14.01,2014-03-01 11:00:00,
2014-03-01 06:05:00,27.9,22.1,29.81,NNW,328,0.0,0.0,79,0.00,,---,0.00,VWS V14.01,2014-03-01 11:05:00,
2014-03-01 06:10:00,27.9,22.1,29.81,NNW,328,0.0,0.0,78,0.00,,---,0.00,VWS V14.01,2014-03-01 11:10:00,
2014-03-01 06:15:00,27.7,21.6,29.82,WNW,291,0.0,0.0,77,0.00,,---,0.00,VWS V14.01,2014-03-01 11:15:00,
2014-03-01 06:20:00,27.4,21.4,29.82,NW,326,0.0,1.1,78,0.00,,---,0.00,VWS V14.01,2014-03-01 11:20:00,
2014-03-01 06:25:00,27.1,21.2,29.83,WNW,292,1.8,2.2,78,0.00,,---,0.00,VWS V14.01,2014-03-01 11:25:00,
2014-03-01 06:30:00,26.8,20.9,29.82,WNW,291,0.0,0.0,78,0.00,,---,0.00,VWS V14.01,2014-03-01 11:30:00,
2014-03-01 06:35:00,26.6,21.2,29.82,WNW,291,0.0,0.0,80,0.00,,---,0.00,VWS V14.01,2014-03-01 11:35:00,
2014-03-01 06:40:00,26.5,21.1,29.82,WNW,291,0.0,0.0,80,0.00,,---,0.00,VWS V14.01,2014-03-01 11:40:00,
2014-03-01 06:45:00,26.4,21.4,29.82,WNW,291,0.0,0.0,81,0.00,,---,0.00,VWS V14.01,2014-03-01 11:45:00,
2014-03-01 06:51:00,26.5,21.7,29.83,WNW,291,0.0,0.0,82,0.00,,---,0.00,VWS V14.01,2014-03-01 11:51:00,
2014-03-01 06:56:00,26.5,21.9,29.83,WNW,291,0.0,0.0,82,0.00,,---,0.00,VWS V14.01,2014-03-01 11:56:00,
2014-03-01 07:01:00,26.7,22.2,29.83,WNW,291,0.0,0.0,83,0.00,,---,0.00,VWS V14.01,2014-03-01 12:01:00,
2014-03-01 07:06:00,26.8,22.4,29.83,WNW,291,0.0,0.0,83,0.00,,---,0.00,VWS V14.01,2014-03-01 12:06:00,
2014-03-01 07:11:00,26.8,22.4,29.83,WNW,291,0.0,0.0,83,0.00,,---,0.00,VWS V14.01,2014-03-01 12:11:00,
2014-03-01 07:16:00,26.9,22.6,29.83,WNW,291,0.0,0.0,84,0.00,,---,0.00,VWS V14.01,2014-03-01 12:16:00,
2014-03-01 07:21:00,27.0,22.8,29.83,WNW,291,0.0,0.0,84,0.00,,---,0.00,VWS V14.01,2014-03-01 12:21:00,
2014-03-01 07:26:00,27.2,23.3,29.83,WNW,291,0.0,0.0,85,0.00,,---,0.00,VWS V14.01,2014-03-01 12:26:00,
2014-03-01 07:31:00,27.6,24.5,29.83,WNW,291,0.0,0.0,88,0.00,,---,0.00,VWS V14.01,2014-03-01 12:31:00,
2014-03-01 07:36:00,28.1,25.3,29.83,WNW,291,0.0,0.0,89,0.00,,---,0.00,VWS V14.01,2014-03-01 12:36:00,
2014-03-01 07:37:00,28.1,25.3,29.83,WNW,291,0.0,0.0,89,0.00,,---,0.00,VWS V14.01,2014-03-01 12:37:00,
2014-03-01 07:42:00,28.6,25.9,29.83,NW,322,0.0,0.0,89,0.00,,---,0.00,VWS V14.01,2014-03-01 12:42:00,
2014-03-01 07:47:00,29.0,26.1,29.83,NW,322,0.0,0.0,89,0.00,,---,0.00,VWS V14.01,2014-03-01 12:47:00,
2014-03-01 07:52:00,29.4,26.5,29.84,NW,322,0.0,0.0,89,0.00,,---,0.00,VWS V14.01,2014-03-01 12:52:00,
2014-03-01 07:57:00,29.6,26.8,29.84,NW,322,0.0,0.0,89,0.00,,---,0.00,VWS V14.01,2014-03-01 12:57:00,
2014-03-01 08:02:00,30.1,27.3,29.84,NW,322,0.0,0.0,89,0.00,,---,0.00,VWS V14.01,2014-03-01 13:02:00,
2014-03-01 08:07:00,30.7,27.9,29.84,NW,322,0.0,0.0,89,0.00,,---,0.00,VWS V14.01,2014-03-01 13:07:00,
2014-03-01 08:12:00,31.1,28.3,29.84,NW,322,0.0,0.0,89,0.00,,---,0.00,VWS V14.01,2014-03-01 13:12:00,
2014-03-01 08:18:00,31.4,28.6,29.84,NW,322,0.0,0.0,89,0.00,,---,0.00,VWS V14.01,2014-03-01 13:18:00,
2014-03-01 08:23:00,32.0,29.0,29.84,WNW,297,0.0,0.0,89,0.00,,---,0.00,VWS V14.01,2014-03-01 13:23:00,
2014-03-01 08:28:00,32.4,29.1,29.85,NNW,335,0.0,0.0,88,0.00,,---,0.00,VWS V14.01,2014-03-01 13:28:00,
2014-03-01 08:33:00,33.0,29.6,29.85,NW,326,0.0,0.0,87,0.00,,---,0.00,VWS V14.01,2014-03-01 13:33:00,
2014-03-01 08:38:00,33.6,29.9,29.85,NW,326,0.0,0.0,86,0.00,,---,0.00,VWS V14.01,2014-03-01 13:38:00,
2014-03-01 08:43:00,34.4,30.2,29.85,NW,323,0.0,0.0,85,0.00,,---,0.00,VWS V14.01,2014-03-01 13:43:00,
2014-03-01 08:48:00,35.3,30.5,29.85,NW,318,0.0,0.0,82,0.00,,---,0.00,VWS V14.01,2014-03-01 13:48:00,
2014-03-01 08:53:00,36.2,30.8,29.86,NW,318,0.0,0.0,80,0.00,,---,0.00,VWS V14.01,2014-03-01 13:53:00,
2014-03-01 08:58:00,37.6,31.3,29.86,WNW,290,0.0,0.0,78,0.00,,---,0.00,VWS V14.01,2014-03-01 13:58:00,
2014-03-01 09:03:00,38.3,31.2,29.86,NW,321,2.0,2.9,76,0.00,,---,0.00,VWS V14.01,2014-03-01 14:03:00,
2014-03-01 09:08:00,38.4,31.0,29.86,NW,309,0.9,1.0,74,0.00,,---,0.00,VWS V14.01,2014-03-01 14:08:00,
2014-03-01 09:13:00,37.6,30.2,29.86,WNW,294,0.0,1.3,74,0.00,,---,0.00,VWS V14.01,2014-03-01 14:13:00,
2014-03-01 09:18:00,36.5,29.7,29.87,WNW,294,0.0,0.0,76,0.00,,---,0.00,VWS V14.01,2014-03-01 14:18:00,
2014-03-01 09:23:00,36.2,29.9,29.87,NW,315,6.5,6.5,78,0.00,,---,0.00,VWS V14.01,2014-03-01 14:23:00,
2014-03-01 09:28:00,35.9,30.0,29.87,WNW,297,1.7,3.0,79,0.00,,---,0.00,VWS V14.01,2014-03-01 14:28:00,
2014-03-01 09:33:00,35.7,29.9,29.87,WNW,288,0.0,0.0,79,0.00,,---,0.00,VWS V14.01,2014-03-01 14:33:00,
2014-03-01 09:38:00,35.5,29.9,29.87,WNW,300,0.0,0.0,80,0.00,,---,0.00,VWS V14.01,2014-03-01 14:38:00,
2014-03-01 09:44:00,35.3,29.8,29.87,NW,309,4.0,4.7,80,0.00,,---,0.00,VWS V14.01,2014-03-01 14:44:00,
2014-03-01 09:49:00,35.3,29.9,29.87,WNW,290,3.8,3.8,80,0.00,,---,0.00,VWS V14.01,2014-03-01 14:49:00,
2014-03-01 09:54:00,35.3,30.1,29.87,NW,325,0.0,0.0,81,0.00,,---,0.00,VWS V14.01,2014-03-01 14:54:00,
2014-03-01 09:59:00,35.4,30.4,29.87,NW,322,4.9,4.9,82,0.00,,---,0.00,VWS V14.01,2014-03-01 14:59:00,
2014-03-01 10:04:00,35.6,30.6,29.88,NW,325,5.3,7.4,82,0.00,,---,0.00,VWS V14.01,2014-03-01 15:04:00,
2014-03-01 10:09:00,35.8,30.9,29.88,WNW,298,0.0,1.5,82,0.00,,---,0.00,VWS V14.01,2014-03-01 15:09:00,
2014-03-01 10:14:00,36.1,31.0,29.88,NW,314,6.1,6.8,82,0.00,,---,0.00,VWS V14.01,2014-03-01 15:14:00,
2014-03-01 10:19:00,36.2,31.0,29.87,WNW,301,0.0,0.0,81,0.00,,---,0.00,VWS V14.01,2014-03-01 15:19:00,
2014-03-01 10:24:00,36.4,31.2,29.87,WNW,290,2.4,2.4,81,0.00,,---,0.00,VWS V14.01,2014-03-01 15:24:00,
2014-03-01 10:29:00,36.3,31.0,29.88,WNW,298,2.8,3.8,81,0.00,,---,0.00,VWS V14.01,2014-03-01 15:29:00,
2014-03-01 10:34:00,36.7,31.3,29.88,West,274,0.9,0.9,81,0.00,,---,0.00,VWS V14.01,2014-03-01 15:34:00,
2014-03-01 10:39:00,37.0,31.4,29.88,WNW,298,1.3,2.7,80,0.00,,---,0.00,VWS V14.01,2014-03-01 15:39:00,
2014-03-01 10:44:00,37.7,31.9,29.87,WNW,297,3.9,4.3,79,0.00,,---,0.00,VWS V14.01,2014-03-01 15:44:00,
2014-03-01 10:49:00,38.6,32.3,29.88,NW,305,2.3,3.3,78,0.00,,---,0.00,VWS V14.01,2014-03-01 15:49:00,
2014-03-01 10:54:00,39.2,32.4,29.88,NW,304,3.0,3.4,76,0.00,,---,0.00,VWS V14.01,2014-03-01 15:54:00,
2014-03-01 10:59:00,39.8,32.8,29.88,NW,321,3.3,3.3,76,0.00,,---,0.00,VWS V14.01,2014-03-01 15:59:00,
2014-03-01 11:04:00,40.8,33.6,29.88,NNW,335,0.0,0.0,75,0.00,,---,0.00,VWS V14.01,2014-03-01 16:04:00,
2014-03-01 11:09:00,41.6,33.2,29.88,NW,314,0.0,0.0,72,0.00,,---,0.00,VWS V14.01,2014-03-01 16:09:00,
2014-03-01 11:15:00,41.8,33.3,29.88,WNW,295,1.4,1.4,72,0.00,,---,0.00,VWS V14.01,2014-03-01 16:15:00,
2014-03-01 11:20:00,42.0,33.5,29.88,NW,305,6.7,6.8,72,0.00,,---,0.00,VWS V14.01,2014-03-01 16:20:00,
2014-03-01 11:25:00,42.5,33.8,29.88,WNW,292,0.4,1.6,71,0.00,,---,0.00,VWS V14.01,2014-03-01 16:25:00,
2014-03-01 11:30:00,42.8,33.5,29.88,NW,307,5.2,6.0,70,0.00,,---,0.00,VWS V14.01,2014-03-01 16:30:00,
2014-03-01 11:35:00,42.5,33.5,29.88,WNW,288,5.2,6.3,70,0.00,,---,0.00,VWS V14.01,2014-03-01 16:35:00,
2014-03-01 11:40:00,42.6,33.7,29.88,West,264,1.4,2.6,70,0.00,,---,0.00,VWS V14.01,2014-03-01 16:40:00,
2014-03-01 11:45:00,42.8,33.9,29.88,NW,308,5.3,5.3,70,0.00,,---,0.00,VWS V14.01,2014-03-01 16:45:00,
2014-03-01 11:50:00,43.2,34.3,29.88,NNW,347,5.0,8.0,71,0.00,,---,0.00,VWS V14.01,2014-03-01 16:50:00,
2014-03-01 11:55:00,43.9,34.7,29.88,WNW,295,1.9,2.7,70,0.00,,---,0.00,VWS V14.01,2014-03-01 16:55:00,
2014-03-01 12:00:00,44.5,35.0,29.87,North,6,3.6,3.6,69,0.00,,---,0.00,VWS V14.01,2014-03-01 17:00:00,
2014-03-01 12:05:00,45.9,35.8,29.87,NNW,343,2.2,2.4,68,0.00,,---,0.00,VWS V14.01,2014-03-01 17:05:00,
2014-03-01 12:10:00,46.7,35.4,29.87,North,359,0.0,0.0,64,0.00,,---,0.00,VWS V14.01,2014-03-01 17:10:00,
2014-03-01 12:15:00,46.2,35.6,29.87,WNW,285,7.0,10.8,66,0.00,,---,0.00,VWS V14.01,2014-03-01 17:15:00,
2014-03-01 12:20:00,46.3,35.6,29.86,WNW,300,6.5,7.0,66,0.00,,---,0.00,VWS V14.01,2014-03-01 17:20:00,
2014-03-01 12:25:00,46.0,34.8,29.86,West,274,0.0,0.0,65,0.00,,---,0.00,VWS V14.01,2014-03-01 17:25:00,
2014-03-01 12:30:00,45.5,35.0,29.86,West,259,0.0,0.0,66,0.00,,---,0.00,VWS V14.01,2014-03-01 17:30:00,
2014-03-01 12:35:00,45.7,34.6,29.86,WNW,294,7.3,7.3,65,0.00,,---,0.00,VWS V14.01,2014-03-01 17:35:00,
2014-03-01 12:41:00,45.9,34.5,29.86,NW,316,0.0,0.0,64,0.00,,---,0.00,VWS V14.01,2014-03-01 17:41:00,
2014-03-01 12:46:00,45.9,34.6,29.85,West,278,3.9,3.9,64,0.00,,---,0.00,VWS V14.01,2014-03-01 17:46:00,
2014-03-01 12:51:00,46.0,35.1,29.85,NW,318,3.6,4.7,66,0.00,,---,0.00,VWS V14.01,2014-03-01 17:51:00,
2014-03-01 12:56:00,46.9,34.8,29.85,West,263,1.3,3.3,63,0.00,,---,0.00,VWS V14.01,2014-03-01 17:56:00,
2014-03-01 13:01:00,46.8,34.7,29.85,West,280,1.3,2.5,62,0.00,,---,0.00,VWS V14.01,2014-03-01 18:01:00,
2014-03-01 13:06:00,47.0,35.3,29.85,West,271,2.1,2.1,64,0.00,,---,0.00,VWS V14.01,2014-03-01 18:06:00,
2014-03-01 13:11:00,46.8,34.7,29.85,North,359,1.5,1.5,63,0.00,,---,0.00,VWS V14.01,2014-03-01 18:11:00,
2014-03-01 13:16:00,46.6,33.9,29.85,West,277,0.0,0.0,61,0.00,,---,0.00,VWS V14.01,2014-03-01 18:16:00,
2014-03-01 13:21:00,46.6,34.8,29.85,North,359,0.0,5.9,63,0.00,,---,0.00,VWS V14.01,2014-03-01 18:21:00,
2014-03-01 13:26:00,47.2,35.1,29.85,WNW,292,2.4,3.7,62,0.00,,---,0.00,VWS V14.01,2014-03-01 18:26:00,
2014-03-01 13:31:00,47.4,35.1,29.85,WNW,291,1.4,2.8,62,0.00,,---,0.00,VWS V14.01,2014-03-01 18:31:00,
2014-03-01 13:36:00,47.2,34.9,29.84,NNW,338,5.3,5.8,62,0.00,,---,0.00,VWS V14.01,2014-03-01 18:36:00,
2014-03-01 13:41:00,47.2,35.0,29.84,NW,326,5.6,9.8,62,0.00,,---,0.00,VWS V14.01,2014-03-01 18:41:00,
2014-03-01 13:46:00,47.1,34.8,29.84,WSW,242,0.0,1.1,62,0.00,,---,0.00,VWS V14.01,2014-03-01 18:46:00,
2014-03-01 13:51:00,47.2,35.0,29.84,North,1,2.9,2.9,62,0.00,,---,0.00,VWS V14.01,2014-03-01 18:51:00,
2014-03-01 13:56:00,47.0,35.0,29.84,West,281,7.0,8.8,63,0.00,,---,0.00,VWS V14.01,2014-03-01 18:56:00,
2014-03-01 14:01:00,46.9,35.2,29.84,North,359,2.9,5.5,64,0.00,,---,0.00,VWS V14.01,2014-03-01 19:01:00,
2014-03-01 14:07:00,47.0,35.1,29.83,WNW,292,0.6,7.3,63,0.00,,---,0.00,VWS V14.01,2014-03-01 19:07:00,
2014-03-01 14:12:00,46.4,34.7,29.83,West,280,2.9,3.1,64,0.00,,---,0.00,VWS V14.01,2014-03-01 19:12:00,
2014-03-01 14:17:00,46.2,35.2,29.82,WNW,287,0.0,3.7,65,0.00,,---,0.00,VWS V14.01,2014-03-01 19:17:00,
2014-03-01 14:22:00,46.6,33.5,29.83,West,281,0.0,0.0,60,0.00,,---,0.00,VWS V14.01,2014-03-01 19:22:00,
2014-03-01 14:27:00,46.9,33.6,29.83,West,270,0.6,0.6,60,0.00,,---,0.00,VWS V14.01,2014-03-01 19:27:00,
2014-03-01 14:32:00,46.6,33.7,29.82,North,359,0.0,0.0,60,0.00,,---,0.00,VWS V14.01,2014-03-01 19:32:00,
2014-03-01 14:37:00,46.2,32.8,29.82,North,359,0.0,0.0,59,0.00,,---,0.00,VWS V14.01,2014-03-01 19:37:00,
2014-03-01 14:42:00,44.9,32.0,29.82,WNW,300,0.0,0.0,60,0.00,,---,0.00,VWS V14.01,2014-03-01 19:42:00,
2014-03-01 14:47:00,44.7,32.5,29.81,North,359,0.0,0.0,62,0.00,,---,0.00,VWS V14.01,2014-03-01 19:47:00,
2014-03-01 14:52:00,45.2,32.0,29.81,North,359,0.0,0.0,60,0.00,,---,0.00,VWS V14.01,2014-03-01 19:52:00,
2014-03-01 14:57:00,45.6,32.0,29.81,North,359,0.0,0.0,59,0.00,,---,0.00,VWS V14.01,2014-03-01 19:57:00,
2014-03-01 15:02:00,45.9,32.3,29.81,West,274,0.0,0.0,59,0.00,,---,0.00,VWS V14.01,2014-03-01 20:02:00,
2014-03-01 15:07:00,45.7,31.8,29.81,WNW,283,3.1,3.1,58,0.00,,---,0.00,VWS V14.01,2014-03-01 20:07:00,
2014-03-01 15:12:00,45.7,32.3,29.81,West,264,0.0,0.0,59,0.00,,---,0.00,VWS V14.01,2014-03-01 20:12:00,
2014-03-01 15:17:00,45.9,32.9,29.81,WNW,283,0.0,1.8,60,0.00,,---,0.00,VWS V14.01,2014-03-01 20:17:00,
2014-03-01 15:22:00,46.2,32.2,29.82,North,359,0.0,0.0,58,0.00,,---,0.00,VWS V14.01,2014-03-01 20:22:00,
2014-03-01 15:27:00,46.2,32.4,29.82,North,359,0.0,0.0,58,0.00,,---,0.00,VWS V14.01,2014-03-01 20:27:00,
2014-03-01 15:32:00,46.0,32.2,29.82,WNW,283,0.0,0.0,58,0.00,,---,0.00,VWS V14.01,2014-03-01 20:32:00,
2014-03-01 15:38:00,45.5,32.0,29.82,North,359,0.0,0.0,59,0.00,,---,0.00,VWS V14.01,2014-03-01 20:38:00,
2014-03-01 15:43:00,45.3,31.9,29.82,WNW,290,0.0,0.0,59,0.00,,---,0.00,VWS V14.01,2014-03-01 20:43:00,
2014-03-01 15:48:00,45.0,31.6,29.82,NW,315,0.0,0.0,59,0.00,,---,0.00,VWS V14.01,2014-03-01 20:48:00,
2014-03-01 15:53:00,44.7,31.7,29.82,North,359,0.0,0.0,60,0.00,,---,0.00,VWS V14.01,2014-03-01 20:53:00,
2014-03-01 15:58:00,44.1,31.6,29.82,North,359,0.0,0.0,61,0.00,,---,0.00,VWS V14.01,2014-03-01 20:58:00,
2014-03-01 16:03:00,44.1,31.6,29.82,North,359,0.0,0.0,61,0.00,,---,0.00,VWS V14.01,2014-03-01 21:03:00,
2014-03-01 16:08:00,44.0,31.7,29.82,North,359,0.0,0.0,62,0.00,,---,0.00,VWS V14.01,2014-03-01 21:08:00,
2014-03-01 16:13:00,44.0,31.7,29.82,WNW,284,0.0,0.0,62,0.00,,---,0.00,VWS V14.01,2014-03-01 21:13:00,
2014-03-01 16:18:00,44.1,32.0,29.82,West,273,0.0,0.0,62,0.00,,---,0.00,VWS V14.01,2014-03-01 21:18:00,
2014-03-01 16:23:00,44.0,31.9,29.82,West,273,0.0,0.0,62,0.00,,---,0.00,VWS V14.01,2014-03-01 21:23:00,
2014-03-01 16:28:00,43.8,31.9,29.82,West,273,0.0,0.0,63,0.00,,---,0.00,VWS V14.01,2014-03-01 21:28:00,
2014-03-01 16:33:00,43.8,32.0,29.82,North,359,0.0,0.0,63,0.00,,---,0.00,VWS V14.01,2014-03-01 21:33:00,
2014-03-01 16:38:00,43.7,32.1,29.82,West,277,0.0,0.0,63,0.00,,---,0.00,VWS V14.01,2014-03-01 21:38:00,
2014-03-01 16:43:00,43.4,32.0,29.82,West,277,0.0,0.0,64,0.00,,---,0.00,VWS V14.01,2014-03-01 21:43:00,
2014-03-01 16:48:00,42.7,31.8,29.82,West,277,0.0,0.0,65,0.00,,---,0.00,VWS V14.01,2014-03-01 21:48:00,
2014-03-01 16:53:00,42.5,31.6,29.82,North,356,0.0,0.0,65,0.00,,---,0.00,VWS V14.01,2014-03-01 21:53:00,
2014-03-01 16:58:00,42.3,31.6,29.83,North,359,0.0,0.0,66,0.00,,---,0.00,VWS V14.01,2014-03-01 21:58:00,
2014-03-01 17:04:00,42.1,31.8,29.83,North,359,0.0,0.0,66,0.00,,---,0.00,VWS V14.01,2014-03-01 22:04:00,
2014-03-01 17:09:00,41.9,31.7,29.83,North,359,0.0,0.0,67,0.00,,---,0.00,VWS V14.01,2014-03-01 22:09:00,
2014-03-01 17:14:00,41.6,31.5,29.83,North,359,0.0,0.0,67,0.00,,---,0.00,VWS V14.01,2014-03-01 22:14:00,
2014-03-01 17:19:00,41.3,31.4,29.83,North,359,0.0,0.0,68,0.00,,---,0.00,VWS V14.01,2014-03-01 22:19:00,
2014-03-01 17:24:00,40.9,31.4,29.84,North,359,0.0,0.0,69,0.00,,---,0.00,VWS V14.01,2014-03-01 22:24:00,
2014-03-01 17:29:00,40.3,31.0,29.84,North,359,0.0,0.0,69,0.00,,---,0.00,VWS V14.01,2014-03-01 22:29:00,
2014-03-01 17:34:00,39.9,31.0,29.84,North,359,0.0,0.0,70,0.00,,---,0.00,VWS V14.01,2014-03-01 22:34:00,
2014-03-01 17:39:00,39.7,30.8,29.84,North,359,0.0,0.0,70,0.00,,---,0.00,VWS V14.01,2014-03-01 22:39:00,
2014-03-01 17:44:00,39.6,30.8,29.84,North,359,0.0,0.0,70,0.00,,---,0.00,VWS V14.01,2014-03-01 22:44:00,
2014-03-01 17:49:00,39.5,30.8,29.84,North,359,0.0,0.0,71,0.00,,---,0.00,VWS V14.01,2014-03-01 22:49:00,
2014-03-01 17:54:00,39.4,30.9,29.85,North,359,0.0,0.0,71,0.00,,---,0.00,VWS V14.01,2014-03-01 22:54:00,
2014-03-01 17:59:00,39.1,30.6,29.84,North,359,0.0,0.0,71,0.00,,---,0.00,VWS V14.01,2014-03-01 22:59:00,
2014-03-01 18:04:00,38.5,30.4,29.84,North,359,0.0,0.0,72,0.00,,---,0.00,VWS V14.01,2014-03-01 23:04:00,
2014-03-01 18:09:00,38.1,30.3,29.84,North,359,0.0,0.0,73,0.00,,---,0.00,VWS V14.01,2014-03-01 23:09:00,
2014-03-01 18:14:00,38.0,30.3,29.85,North,359,0.0,0.0,73,0.00,,---,0.00,VWS V14.01,2014-03-01 23:14:00,
2014-03-01 18:19:00,38.0,30.3,29.85,North,359,0.0,0.0,74,0.00,,---,0.00,VWS V14.01,2014-03-01 23:19:00,
2014-03-01 18:24:00,37.9,30.3,29.84,North,359,0.0,0.0,74,0.00,,---,0.00,VWS V14.01,2014-03-01 23:24:00,
2014-03-01 18:30:00,37.8,30.3,29.84,North,359,0.0,0.0,74,0.00,,---,0.00,VWS V14.01,2014-03-01 23:30:00,
2014-03-01 18:35:00,37.6,30.2,29.85,North,359,0.0,0.0,74,0.00,,---,0.00,VWS V14.01,2014-03-01 23:35:00,
2014-03-01 18:40:00,37.6,30.3,29.85,North,359,0.0,0.0,75,0.00,,---,0.00,VWS V14.01,2014-03-01 23:40:00,
2014-03-01 18:45:00,37.6,30.3,29.85,North,359,0.0,0.0,75,0.00,,---,0.00,VWS V14.01,2014-03-01 23:45:00,
2014-03-01 18:50:00,37.6,30.4,29.85,North,359,0.0,0.0,75,0.00,,---,0.00,VWS V14.01,2014-03-01 23:50:00,
2014-03-01 18:55:00,37.5,30.3,29.86,North,359,0.0,0.0,75,0.00,,---,0.00,VWS V14.01,2014-03-01 23:55:00,
2014-03-01 19:00:00,37.5,30.4,29.85,WNW,285,0.0,0.0,75,0.00,,---,0.00,VWS V14.01,2014-03-02 00:00:00,
2014-03-01 19:05:00,37.2,30.3,29.85,West,273,0.0,0.0,76,0.00,,---,0.00,VWS V14.01,2014-03-02 00:05:00,
2014-03-01 19:10:00,36.9,30.1,29.85,West,273,0.0,0.0,76,0.00,,---,0.00,VWS V14.01,2014-03-02 00:10:00,
2014-03-01 19:15:00,36.6,30.1,29.85,West,273,0.0,0.0,77,0.00,,---,0.00,VWS V14.01,2014-03-02 00:15:00,
2014-03-01 19:20:00,36.3,30.0,29.85,West,273,0.0,0.0,78,0.00,,---,0.00,VWS V14.01,2014-03-02 00:20:00,
2014-03-01 19:25:00,36.1,30.0,29.85,West,273,0.0,0.0,78,0.00,,---,0.00,VWS V14.01,2014-03-02 00:25:00,
2014-03-01 19:30:00,35.7,29.8,29.86,West,273,0.0,0.0,79,0.00,,---,0.00,VWS V14.01,2014-03-02 00:30:00,
2014-03-01 19:35:00,35.4,29.9,29.85,West,273,0.0,0.0,80,0.00,,---,0.00,VWS V14.01,2014-03-02 00:35:00,
2014-03-01 19:41:00,35.3,29.9,29.86,West,273,0.0,0.0,80,0.00,,---,0.00,VWS V14.01,2014-03-02 00:41:00,
2014-03-01 19:46:00,35.3,30.0,29.86,West,273,0.0,0.0,81,0.00,,---,0.00,VWS V14.01,2014-03-02 00:46:00,
2014-03-01 19:51:00,35.2,30.0,29.86,West,273,0.0,0.0,81,0.00,,---,0.00,VWS V14.01,2014-03-02 00:51:00,
2014-03-01 19:56:00,35.1,30.0,29.86,West,273,0.0,0.0,82,0.00,,---,0.00,VWS V14.01,2014-03-02 00:56:00,
2014-03-01 20:01:00,35.2,30.2,29.86,West,273,0.0,0.0,82,0.00,,---,0.00,VWS V14.01,2014-03-02 01:01:00,
2014-03-01 20:06:00,35.2,30.2,29.86,West,273,0.0,0.0,82,0.00,,---,0.00,VWS V14.01,2014-03-02 01:06:00,
2014-03-01 20:11:00,35.2,30.2,29.86,West,273,0.0,0.0,82,0.00,,---,0.00,VWS V14.01,2014-03-02 01:11:00,
2014-03-01 20:16:00,35.2,30.2,29.86,West,273,0.0,0.0,82,0.00,,---,0.00,VWS V14.01,2014-03-02 01:16:00,
2014-03-01 20:21:00,35.2,30.2,29.86,West,273,0.0,0.0,82,0.00,,---,0.00,VWS V14.01,2014-03-02 01:21:00,
2014-03-01 20:26:00,35.2,30.2,29.86,West,273,0.0,0.0,82,0.00,,---,0.00,VWS V14.01,2014-03-02 01:26:00,
2014-03-01 20:31:00,35.0,30.1,29.86,West,273,0.0,0.0,82,0.00,,---,0.00,VWS V14.01,2014-03-02 01:31:00,
2014-03-01 20:36:00,34.8,30.1,29.86,West,273,0.0,0.0,83,0.00,,---,0.00,VWS V14.01,2014-03-02 01:36:00,
2014-03-01 20:41:00,34.6,30.1,29.86,West,273,0.0,0.0,83,0.00,,---,0.00,VWS V14.01,2014-03-02 01:41:00,
2014-03-01 20:46:00,34.6,30.2,29.86,West,273,0.0,0.0,84,0.00,,---,0.00,VWS V14.01,2014-03-02 01:46:00,
2014-03-01 20:51:00,34.9,30.5,29.86,West,273,0.0,0.0,84,0.00,,---,0.00,VWS V14.01,2014-03-02 01:51:00,
2014-03-01 20:56:00,34.9,30.5,29.86,West,273,0.0,0.0,84,0.00,,---,0.00,VWS V14.01,2014-03-02 01:56:00,
2014-03-01 21:01:00,34.7,30.4,29.86,West,273,0.0,0.0,84,0.00,,---,0.00,VWS V14.01,2014-03-02 02:01:00,
2014-03-01 21:06:00,34.8,30.7,29.87,NW,309,1.7,2.0,85,0.00,,---,0.00,VWS V14.01,2014-03-02 02:06:00,
2014-03-01 21:12:00,34.7,30.8,29.87,WNW,295,1.3,2.2,86,0.00,,---,0.00,VWS V14.01,2014-03-02 02:12:00,
2014-03-01 21:17:00,34.6,30.9,29.87,WNW,295,0.0,1.6,86,0.00,,---,0.00,VWS V14.01,2014-03-02 02:17:00,
2014-03-01 21:22:00,34.4,30.9,29.88,West,273,0.0,0.0,87,0.00,,---,0.00,VWS V14.01,2014-03-02 02:22:00,
2014-03-01 21:27:00,34.0,30.8,29.88,WNW,297,1.2,2.0,88,0.00,,---,0.00,VWS V14.01,2014-03-02 02:27:00,
2014-03-01 21:32:00,33.9,30.9,29.88,NW,312,1.1,1.2,89,0.00,,---,0.00,VWS V14.01,2014-03-02 02:32:00,
2014-03-01 21:37:00,33.7,30.9,29.88,NW,314,0.0,0.0,89,0.00,,---,0.00,VWS V14.01,2014-03-02 02:37:00,
2014-03-01 21:42:00,33.4,30.6,29.88,NW,316,0.0,0.0,89,0.00,,---,0.00,VWS V14.01,2014-03-02 02:42:00,
2014-03-01 21:47:00,33.2,30.7,29.88,NW,305,0.0,0.0,90,0.00,,---,0.00,VWS V14.01,2014-03-02 02:47:00,
2014-03-01 21:52:00,33.0,30.6,29.88,WNW,300,0.0,0.0,91,0.00,,---,0.00,VWS V14.01,2014-03-02 02:52:00,
2014-03-01 21:57:00,32.9,30.6,29.88,NW,326,0.0,0.0,91,0.00,,---,0.00,VWS V14.01,2014-03-02 02:57:00,
2014-03-01 22:02:00,32.7,30.7,29.87,NW,312,4.2,5.5,92,0.00,,---,0.00,VWS V14.01,2014-03-02 03:02:00,
2014-03-01 22:07:00,32.8,30.9,29.87,WNW,288,2.1,2.1,92,0.00,,---,0.00,VWS V14.01,2014-03-02 03:07:00,
2014-03-01 22:12:00,33.0,31.2,29.87,WNW,301,3.8,6.2,93,0.00,,---,0.00,VWS V14.01,2014-03-02 03:12:00,
2014-03-01 22:17:00,33.2,31.4,29.87,NW,322,0.0,0.0,93,0.00,,---,0.00,VWS V14.01,2014-03-02 03:17:00,
2014-03-01 22:22:00,33.3,31.5,29.87,WNW,295,3.4,5.0,93,0.00,,---,0.00,VWS V14.01,2014-03-02 03:22:00,
2014-03-01 22:27:00,33.3,31.5,29.87,WSW,252,0.0,0.0,93,0.00,,---,0.00,VWS V14.01,2014-03-02 03:27:00,
2014-03-01 22:32:00,33.4,31.6,29.87,NW,311,0.0,0.0,93,0.00,,---,0.00,VWS V14.01,2014-03-02 03:32:00,
2014-03-01 22:38:00,33.5,31.6,29.87,NW,311,0.0,1.4,93,0.00,,---,0.00,VWS V14.01,2014-03-02 03:38:00,
2014-03-01 22:43:00,33.7,31.6,29.86,NW,307,4.6,4.8,92,0.00,,---,0.00,VWS V14.01,2014-03-02 03:43:00,
2014-03-01 22:48:00,33.6,31.5,29.86,WNW,295,3.9,3.9,92,0.00,,---,0.00,VWS V14.01,2014-03-02 03:48:00,
2014-03-01 22:53:00,33.6,31.5,29.86,NNW,330,3.4,3.5,92,0.00,,---,0.00,VWS V14.01,2014-03-02 03:53:00,
2014-03-01 22:58:00,33.5,31.5,29.86,NW,318,5.0,5.3,92,0.00,,---,0.00,VWS V14.01,2014-03-02 03:58:00,
2014-03-01 23:03:00,33.3,31.4,29.86,NW,315,2.1,2.5,93,0.00,,---,0.00,VWS V14.01,2014-03-02 04:03:00,
2014-03-01 23:08:00,33.3,31.5,29.86,NW,325,3.7,3.7,93,0.00,,---,0.00,VWS V14.01,2014-03-02 04:08:00,
2014-03-01 23:13:00,33.1,31.3,29.86,NW,307,2.6,3.6,93,0.00,,---,0.00,VWS V14.01,2014-03-02 04:13:00,
2014-03-01 23:18:00,32.9,31.1,29.86,NW,323,3.5,5.0,93,0.00,,---,0.00,VWS V14.01,2014-03-02 04:18:00,
2014-03-01 23:23:00,33.2,31.3,29.86,NW,318,2.9,2.9,92,0.00,,---,0.00,VWS V14.01,2014-03-02 04:23:00,
2014-03-01 23:28:00,33.5,31.3,29.86,NNW,329,1.9,2.2,92,0.00,,---,0.00,VWS V14.01,2014-03-02 04:28:00,
2014-03-01 23:33:00,33.8,31.4,29.86,NW,326,1.8,2.6,91,0.00,,---,0.00,VWS V14.01,2014-03-02 04:33:00,
2014-03-01 23:38:00,34.0,31.4,29.86,NW,308,3.4,3.9,90,0.00,,---,0.00,VWS V14.01,2014-03-02 04:38:00,
2014-03-01 23:43:00,34.1,31.4,29.86,NW,318,2.4,2.4,90,0.00,,---,0.00,VWS V14.01,2014-03-02 04:43:00,
2014-03-01 23:48:00,34.1,31.4,29.86,NW,326,3.2,3.2,90,0.00,,---,0.00,VWS V14.01,2014-03-02 04:48:00,
2014-03-01 23:53:00,33.9,31.3,29.87,NW,326,2.6,4.0,90,0.00,,---,0.00,VWS V14.01,2014-03-02 04:53:00,
2014-03-01 23:59:00,33.8,31.4,29.86,NW,322,3.8,3.8,91,0.00,,---,0.00,VWS V14.01,2014-03-02 04:59:00,